AIRPORT_AIRPORT_METAR
METAR FOR LFQQ
ADDS - METARS form results

(1257 UTC 28 May 2020)
Data provider http://aviationweather.gov/metar/data/
 
METAR text: LFQQ 281230Z AUTO 03013KT 010V070 CAVOK 21/04 Q1032 NOSIG
Conditions at: LFQQ (LILLE/LESQUIN , FR) observed 1230 UTC 28 May 2020
Temperature: 21.0°C (70°F)
Dewpoint: 4.0°C (39°F) [RH = 33%]
Pressure (altimeter): 30.47 inches Hg (1032.0 mb)
Winds: from the NNE (30 degrees) at 15 MPH (13 knots; 6.7 m/s)
Visibility: 6 or more miles (10+ km)
Ceiling: ceiling and visibility are OK
Clouds: unknown
Weather: no significant weather observed at this time

METAR text: LFQQ 281200Z AUTO 06012KT 030V090 CAVOK 21/03 Q1032 NOSIG
Conditions at: LFQQ (LILLE/LESQUIN , FR) observed 1200 UTC 28 May 2020
Temperature: 21.0°C (70°F)
Dewpoint: 3.0°C (37°F) [RH = 30%]
Pressure (altimeter): 30.47 inches Hg (1032.0 mb)
Winds: from the ENE (60 degrees) at 14 MPH (12 knots; 6.2 m/s)
Visibility: 6 or more miles (10+ km)
Ceiling: ceiling and visibility are OK
Clouds: unknown
Weather: no significant weather observed at this time

Forecast for: LFQQ (LILLE/LESQUIN , FR)
Text: TAF LFQQ 281100Z 2812/2918 05012KT CAVOK
Forecast period: 1200 UTC 28 May 2020 to 1800 UTC 29 May 2020
Forecast type: FROM: standard forecast or significant change
Winds: from the NE (50 degrees) at 14 MPH (12 knots; 6.2 m/s)
Visibility: 6 or more miles 10+ km)
Ceiling: unknown
Clouds: missing
Weather: NSW  (no significant weather)

 AIRPORT_AIRPORT_MAP

 AIRPORT_RUNWAY_INFO
AIRPORT_RUNWAY 02 AIRPORT_RUNWAY_LENGTH 5184 ft AIRPORT_RUNWAY_WIDTH 98 ft
AIRPORT_RUNWAY_ELEVATION 148 ft AIRPORT_RUNWAY_THRESHOLD 0 ft AIRPORT_RUNWAY_HEADING 15
AIRPORT_RUNWAY 20 AIRPORT_RUNWAY_LENGTH 5184 ft AIRPORT_RUNWAY_WIDTH 98 ft
AIRPORT_RUNWAY_ELEVATION 153 ft AIRPORT_RUNWAY_THRESHOLD 0 ft AIRPORT_RUNWAY_HEADING 195
AIRPORT_RUNWAY 08 AIRPORT_RUNWAY_LENGTH 9268 ft AIRPORT_RUNWAY_WIDTH 148 ft
AIRPORT_RUNWAY_ELEVATION 157 ft AIRPORT_RUNWAY_THRESHOLD 0 ft AIRPORT_RUNWAY_HEADING 78
AIRPORT_RUNWAY 26 AIRPORT_RUNWAY_LENGTH 9268 ft AIRPORT_RUNWAY_WIDTH 148 ft
AIRPORT_RUNWAY_ELEVATION 132 ft AIRPORT_RUNWAY_THRESHOLD 918 ft AIRPORT_RUNWAY_HEADING 258

 AIRPORT_AIRPORT_FREQUENCIES
AIRPORT_AIRPORT_NAVAIDS_TYPE AFIS AIRPORT_AIRPORT_NAVAIDS_NAME LILLE INFO AIRPORT_AIRPORT_NAVAIDS_FREQ 134.825 MHZ
AIRPORT_AIRPORT_NAVAIDS_TYPE APP AIRPORT_AIRPORT_NAVAIDS_NAME LILLE APP AIRPORT_AIRPORT_NAVAIDS_FREQ 120.275 MHZ
AIRPORT_AIRPORT_NAVAIDS_TYPE ATIS AIRPORT_AIRPORT_NAVAIDS_NAME ATIS AIRPORT_AIRPORT_NAVAIDS_FREQ 119.325 MHZ
AIRPORT_AIRPORT_NAVAIDS_TYPE GND AIRPORT_AIRPORT_NAVAIDS_NAME LILLE GND AIRPORT_AIRPORT_NAVAIDS_FREQ 121.85 MHZ
AIRPORT_AIRPORT_NAVAIDS_TYPE TWR AIRPORT_AIRPORT_NAVAIDS_NAME LILLE TWR AIRPORT_AIRPORT_NAVAIDS_FREQ 118.55 MHZ

 AIRPORT_AIRPORT_NAVAIDS
AIRPORT_AIRPORT_NAVAIDS_TYPE VOR-DME AIRPORT_AIRPORT_NAVAIDS_NAME Lesquin AIRPORT_AIRPORT_NAVAIDS_FREQ 109000 KHZ



Copyright © 2005-2020 - Virtuel Air Alsace - Tous droits réservés